Date,TemperatureHighF,TemperatureAvgF,TemperatureLowF,DewpointHighF,DewpointAvgF,DewpointLowF,HumidityHigh,HumidityAvg,HumidityLow,PressureMaxIn,PressureMinIn,WindSpeedMaxMPH,WindSpeedAvgMPH,GustSpeedMaxMPH,PrecipitationSumIn
2013-1-1,20.1,12.5,2.8,7.7,0.7,-6.9,70,59,44,30.27,30.06,6,3,9,0.00
2013-1-2,34.7,24.1,12.7,25.7,14.7,2.8,76,67,53,30.21,30.00,7,4,9,0.00
2013-1-3,30.2,23.2,17.1,22.7,12.6,4.6,75,64,44,30.39,30.18,8,3,13,0.00
2013-1-4,33.8,21.7,15.4,12.6,9.5,6.2,79,60,41,30.27,30.09,8,4,10,0.00
2013-1-5,30.9,22.6,12.0,19.2,11.1,2.5,91,62,46,30.18,29.94,12,4,17,0.00
2013-1-6,34.7,23.5,11.5,17.2,11.6,4.9,75,61,44,30.27,30.09,8,3,12,0.00
2013-1-7,37.9,31.3,21.2,21.1,17.6,14.3,77,57,48,30.09,29.91,11,4,15,0.00
2013-1-8,39.4,30.7,21.2,25.0,21.6,14.8,86,70,52,30.09,29.80,10,4,14,0.00
2013-1-9,48.0,35.7,25.3,25.6,22.2,17.9,78,59,38,30.42,30.09,10,3,13,0.00
2013-1-10,39.2,36.4,31.8,35.8,26.4,16.5,98,69,41,30.30,29.65,12,4,20,0.40
2013-1-11,51.4,39.8,25.5,48.2,36.1,10.1,98,87,52,29.74,29.38,13,4,20,0.00
2013-1-12,25.3,18.5,10.0,11.5,1.4,-4.9,57,47,38,30.12,29.74,13,5,23,0.00
2013-1-13,22.6,14.4,7.2,0.0,-3.6,-7.8,50,44,34,30.33,30.12,8,3,13,0.08
2013-1-14,28.9,17.3,7.9,6.4,-0.4,-8.2,62,46,34,30.42,30.27,9,3,12,0.00
2013-1-15,35.1,23.5,12.2,12.8,7.6,-0.9,63,51,35,30.33,29.97,10,4,14,0.00
2013-1-16,53.2,36.8,23.2,26.8,20.0,9.5,73,52,31,30.18,29.85,11,5,15,0.00
2013-1-17,32.0,27.8,22.8,31.3,26.1,18.9,98,93,74,30.44,30.18,6,1,10,0.00
2013-1-18,50.9,39.8,29.3,28.8,23.6,20.1,95,54,36,30.27,29.85,15,6,21,0.00
2013-1-19,54.3,45.8,32.9,23.8,21.9,19.6,63,41,30,30.03,29.83,11,5,16,0.00
2013-1-20,52.0,26.8,12.7,22.2,6.9,-2.0,59,44,31,30.36,30.03,6,3,9,0.00
2013-1-21,14.5,10.2,5.0,5.2,-3.4,-8.4,67,54,52,30.42,30.30,10,3,14,0.00
2013-1-22,21.2,13.8,9.7,6.5,0.1,-4.1,61,54,50,30.36,30.18,6,2,8,0.00
2013-1-23,32.4,19.0,9.1,12.4,3.4,-7.0,65,51,40,30.48,30.12,7,3,13,0.00
2013-1-24,18.7,10.5,1.9,-0.8,-7.7,-13.7,47,43,37,30.53,30.12,9,4,14,0.00
2013-1-25,50.0,29.5,14.5,20.9,10.0,-2.5,65,45,28,30.18,30.09,8,2,10,0.00
2013-1-26,48.4,31.6,16.9,19.7,13.6,4.5,67,49,31,30.21,29.97,10,5,15,0.00
2013-1-27,41.9,38.5,35.6,41.2,32.0,16.1,98,81,42,29.97,29.65,9,4,14,0.20
2013-1-28,44.1,38.5,33.8,43.5,38.0,33.3,98,98,98,29.85,29.53,6,2,9,0.00
2013-1-29,40.5,33.7,30.7,39.9,30.6,25.5,98,88,75,29.71,29.53,9,4,18,0.04
2013-1-30,30.7,21.7,13.5,29.5,13.0,2.1,98,71,45,29.91,29.62,11,5,18,0.00
2013-1-31,14.5,6.9,-0.9,2.1,-5.5,-12.9,57,56,56,30.36,29.91,12,5,20,0.00
2013-2-1,26.6,13.3,-3.5,13.4,-0.2,-15.3,60,54,47,30.39,30.00,12,5,21,0.00
2013-2-2,37.6,29.7,24.4,28.9,18.9,10.8,83,64,50,30.15,29.97,12,3,20,0.00
2013-2-3,41.7,33.1,19.4,23.6,16.7,7.0,68,51,39,30.21,29.74,13,5,20,0.00
2013-2-4,37.2,27.3,22.3,24.8,18.4,13.2,87,70,54,30.00,29.74,8,3,14,0.00
2013-2-5,52.0,37.9,25.3,25.9,21.6,15.4,92,56,29,30.00,29.74,9,3,14,0.00
2013-2-6,54.7,40.7,29.7,31.5,25.8,17.7,74,56,38,30.03,29.80,11,3,17,0.00
2013-2-7,39.7,33.4,28.8,32.1,24.9,17.0,84,71,61,30.21,29.85,8,4,13,0.00
2013-2-8,32.7,28.2,24.8,24.1,20.9,16.8,85,74,60,30.30,30.09,9,4,14,0.00
2013-2-9,48.9,37.5,28.0,30.4,28.0,24.1,92,71,47,30.12,29.62,12,8,18,0.00
2013-2-10,44.8,36.7,29.8,43.0,29.4,15.6,98,76,52,29.77,29.24,16,8,24,0.20
2013-2-11,36.3,29.8,22.5,20.6,15.5,13.2,81,55,42,30.12,29.74,14,5,21,0.00
2013-2-12,49.6,32.8,19.8,19.2,16.2,10.2,87,55,27,30.15,29.85,13,3,15,0.00
2013-2-13,54.9,38.2,24.3,24.4,20.1,14.9,81,52,27,29.88,29.68,11,4,15,0.00
2013-2-14,45.1,36.4,21.2,31.5,20.8,7.7,93,55,31,30.24,29.74,12,4,19,0.00
2013-2-15,33.1,22.8,13.5,22.0,11.5,4.1,92,64,36,30.33,30.21,6,2,10,0.00
2013-2-16,34.0,22.7,8.4,20.3,13.8,3.8,88,69,52,30.33,29.97,7,3,11,0.04
2013-2-17,27.1,23.4,23.0,17.5,16.4,15.9,75,74,66,30.00,29.91,4,3,6,0.00
2013-2-18,49.3,27.6,21.2,29.3,15.8,7.9,87,62,41,30.06,29.53,13,5,20,0.04
2013-2-19,27.9,16.6,8.6,9.7,-2.8,-10.2,58,43,26,30.33,30.03,11,5,18,0.00
2013-2-20,24.3,15.5,5.0,0.5,-5.6,-14.1,45,38,34,30.36,30.15,8,4,12,0.00
2013-2-21,25.0,21.7,20.5,19.9,10.2,-0.3,91,64,38,30.21,29.83,9,4,14,0.00
2013-2-22,23.9,18.3,9.5,18.9,12.2,1.4,89,77,58,30.00,29.80,8,3,13,0.00
2013-2-23,36.9,21.0,6.1,20.8,10.9,-1.9,83,65,49,29.97,29.77,7,3,12,0.09
2013-2-24,45.9,30.9,20.5,24.3,19.4,13.8,80,64,36,30.00,29.85,4,2,6,0.04
2013-2-25,36.3,29.4,25.5,25.1,22.2,19.3,91,75,54,30.06,29.85,6,3,11,0.00
2013-2-26,32.2,27.8,24.4,25.6,24.1,21.0,98,86,73,29.88,29.74,8,4,13,0.00
2013-2-27,37.8,30.0,23.5,22.3,18.0,12.9,83,63,41,30.06,29.85,10,5,19,0.00
2013-2-28,33.6,27.3,24.6,20.2,17.4,14.1,74,66,50,30.21,30.06,10,4,14,0.00
2013-3-1,29.3,25.2,22.8,17.7,12.5,9.0,74,58,43,30.30,30.18,8,4,13,0.00
2013-3-2,35.2,26.9,16.5,17.5,12.0,7.5,78,54,40,30.33,30.06,7,3,10,0.00
2013-3-3,39.6,32.5,25.7,22.6,20.0,17.4,76,60,49,30.06,29.68,11,6,15,0.00
2013-3-4,43.5,35.0,29.7,29.3,21.8,12.4,86,59,41,30.00,29.62,9,4,15,0.00
2013-3-5,32.9,27.3,23.0,13.5,11.0,7.2,57,50,42,30.36,29.97,15,6,23,0.00
2013-3-6,39.4,29.0,20.5,16.0,13.2,9.7,68,53,35,30.42,30.15,8,3,13,0.00
2013-3-7,51.1,34.8,22.8,23.0,18.7,14.8,74,54,31,30.24,30.03,11,6,16,0.00
2013-3-8,55.0,41.4,30.0,37.4,26.2,20.0,85,56,36,30.15,29.85,14,6,17,0.16
2013-3-9,54.5,45.4,35.1,50.2,41.9,32.7,95,88,71,29.85,29.53,10,5,15,0.28
2013-3-10,35.1,27.7,21.9,32.7,26.5,20.7,98,95,87,29.91,29.65,11,6,18,0.08
2013-3-11,30.4,23.4,19.8,21.0,17.1,7.5,96,78,51,29.97,29.83,10,4,18,0.00
2013-3-12,34.5,28.0,21.2,19.0,14.9,9.7,85,59,44,30.30,29.97,12,5,20,0.00
2013-3-13,35.8,27.0,16.0,16.1,12.7,8.7,82,56,38,30.44,30.21,6,3,10,0.09
2013-3-14,59.9,42.1,31.6,32.5,24.0,14.4,76,49,35,30.21,30.03,7,2,10,0.00
2013-3-15,61.3,46.3,35.2,36.1,33.0,28.0,86,63,37,30.06,29.68,8,3,10,0.00
2013-3-16,38.8,32.2,27.9,35.9,22.0,15.9,89,67,51,30.15,29.80,9,4,17,0.00
2013-3-17,45.1,36.3,25.0,31.9,20.3,13.3,90,54,38,30.12,29.71,10,5,15,0.00
2013-3-18,38.1,33.5,24.8,34.4,16.9,6.3,98,55,30,30.00,29.71,17,6,25,0.04
2013-3-19,52.9,32.6,19.9,20.6,11.2,4.5,57,42,24,30.30,30.00,10,3,17,0.00
2013-3-20,37.9,25.4,15.1,8.8,3.5,-2.5,58,40,29,30.36,30.06,8,3,13,0.00
2013-3-21,32.5,26.6,21.2,10.5,6.1,2.7,53,42,33,30.06,29.85,7,4,12,0.00
2013-3-22,34.7,30.8,26.2,15.8,11.8,8.1,54,45,40,30.03,29.91,5,3,8,0.00
2013-3-23,38.8,32.3,28.4,27.2,20.0,11.7,91,62,39,30.06,29.97,6,3,10,0.00
2013-3-24,28.8,26.4,24.6,25.8,17.3,10.6,91,69,49,30.06,29.94,10,5,17,0.00
2013-3-25,30.6,26.3,22.8,23.3,17.3,11.9,89,69,47,30.30,30.03,9,4,15,0.00
2013-3-26,41.7,28.6,16.9,19.7,12.9,9.1,74,53,34,30.36,30.18,7,2,10,0.08
2013-3-27,52.7,41.0,25.7,23.6,19.9,14.0,68,44,29,30.24,30.09,10,5,15,0.00
2013-3-28,58.8,44.3,27.5,28.8,23.4,19.6,80,47,26,30.24,30.09,6,2,9,0.00
2013-3-29,69.3,52.8,35.2,34.0,26.2,21.4,73,40,20,30.18,30.00,10,4,15,0.00
2013-3-30,68.0,56.5,48.0,51.7,38.2,22.4,97,57,23,30.06,29.85,8,3,14,0.37
2013-3-31,59.0,50.1,32.0,51.5,27.8,17.6,90,49,22,30.09,29.91,10,4,15,0.00
2013-4-1,43.3,32.3,21.4,28.9,15.4,6.6,89,54,29,30.30,30.09,7,3,11,0.00
2013-4-2,54.9,38.6,23.2,21.5,15.0,7.5,64,40,26,30.30,30.18,7,2,10,0.00
2013-4-3,57.2,42.0,30.4,22.9,17.5,13.2,53,38,26,30.33,30.15,10,4,15,0.00
2013-4-4,65.7,48.6,31.6,33.2,24.8,16.3,75,42,25,30.18,30.00,11,4,14,0.00
2013-4-5,68.5,52.5,35.1,32.4,26.2,19.8,65,38,22,30.12,29.68,14,6,20,0.00
2013-4-6,70.7,58.8,50.2,40.4,32.7,27.2,61,39,23,29.77,29.56,13,4,20,0.00
2013-4-7,73.8,56.2,43.5,49.3,37.1,31.6,86,51,23,29.83,29.59,14,3,17,0.25
2013-4-8,66.7,57.6,47.5,61.7,53.8,46.5,98,88,67,29.74,29.56,12,4,15,0.29
2013-4-9,63.0,45.9,34.0,60.0,44.8,33.2,98,96,82,29.94,29.56,9,4,18,0.92
2013-4-10,36.9,35.1,32.2,36.2,34.4,31.7,98,97,93,29.97,29.77,16,4,19,0.42
2013-4-11,35.6,32.3,29.5,32.8,28.3,24.0,98,86,70,29.80,29.62,9,5,15,0.08
2013-4-12,41.2,35.1,30.2,28.4,23.8,19.5,84,64,45,30.00,29.71,10,5,16,0.00
2013-4-13,53.6,41.2,26.1,32.3,26.5,20.4,87,58,40,30.00,29.59,11,4,16,0.00
2013-4-14,66.6,52.4,42.8,45.7,36.8,24.4,83,58,35,29.65,29.26,19,6,25,0.20
2013-4-15,46.4,39.7,33.3,26.8,21.5,15.3,77,48,39,30.06,29.62,8,4,12,0.00
2013-4-16,53.2,43.4,35.1,25.8,23.3,21.0,65,46,30,30.21,30.03,8,3,13,0.00
2013-4-17,46.8,41.3,36.3,41.9,35.9,25.0,98,84,43,30.12,29.71,9,4,15,1.20
2013-4-18,36.3,33.5,30.9,35.1,29.4,21.7,98,86,61,29.88,29.65,13,7,24,0.70
2013-4-19,47.3,36.7,27.9,23.3,16.0,12.9,68,44,29,30.06,29.85,12,5,18,0.00
2013-4-20,46.8,36.7,24.3,21.1,16.4,12.7,74,45,29,30.21,30.06,9,3,14,0.00
2013-4-21,67.5,54.0,43.5,50.2,31.7,20.7,91,46,26,30.09,29.94,16,6,23,0.33
2013-4-22,51.4,43.2,32.7,50.6,41.5,25.3,98,94,74,30.18,29.94,10,3,15,1.47
2013-4-23,39.9,33.3,28.4,25.3,18.2,13.0,75,55,40,30.24,30.09,10,5,17,0.00
2013-4-24,60.3,40.3,23.9,32.8,21.9,16.1,80,52,22,30.21,29.97,15,5,18,0.00
2013-4-25,70.0,50.6,32.0,29.6,26.5,21.3,78,44,22,30.24,29.97,13,5,19,0.00
2013-4-26,71.4,58.2,49.5,44.8,35.3,27.0,84,44,28,30.15,29.97,12,6,16,0.00
2013-4-27,70.0,54.9,42.8,49.6,43.7,39.2,98,70,34,30.18,29.91,6,3,10,0.00
2013-4-28,81.7,63.6,46.4,52.2,42.9,36.7,98,55,21,29.94,29.62,12,4,16,0.00
2013-4-29,83.8,68.0,54.9,51.2,44.9,36.9,74,47,19,29.74,29.47,8,2,12,0.00
2013-4-30,73.6,68.8,61.3,48.4,39.0,28.8,42,34,28,29.85,29.44,14,5,19,0.00
2013-5-1,61.3,41.5,32.7,38.3,34.4,28.6,98,79,29,30.36,29.85,10,5,18,0.29
2013-5-2,49.6,39.6,32.7,33.5,26.0,20.7,98,62,37,30.53,30.33,10,4,18,0.64
2013-5-3,48.0,40.2,30.6,26.3,23.5,20.4,78,53,38,30.36,30.00,8,4,16,0.00
2013-5-4,43.3,39.1,35.1,40.0,35.8,27.0,98,88,60,30.09,29.94,10,5,17,0.00
2013-5-5,55.0,47.2,40.8,45.1,42.3,39.7,98,84,65,30.12,30.03,6,3,10,0.00
2013-5-6,68.9,55.3,47.1,48.1,44.1,40.3,95,69,37,30.15,30.00,5,2,8,0.00
2013-5-7,72.9,60.4,46.4,56.2,46.5,39.8,98,64,33,30.06,29.91,7,2,13,0.16
2013-5-8,67.6,61.9,56.3,58.1,53.1,47.8,90,73,59,29.97,29.85,7,2,10,0.36
2013-5-9,68.2,59.3,55.9,59.1,55.3,47.1,98,88,51,29.97,29.85,8,2,12,0.80
2013-5-10,70.2,57.9,48.9,51.3,43.1,35.6,93,62,31,30.09,29.97,6,3,12,0.00
2013-5-11,61.2,54.5,44.6,42.5,25.1,14.3,72,34,22,30.24,30.00,12,4,21,0.00
2013-5-12,66.4,52.1,35.1,28.0,21.8,15.2,60,32,20,30.24,30.06,6,2,13,0.00
2013-5-13,83.3,66.2,47.1,42.5,34.0,18.8,57,32,19,30.09,29.80,12,5,19,0.00
2013-5-14,99.7,80.3,61.3,56.4,43.2,30.9,73,34,10,29.83,29.59,16,5,24,0.00
2013-5-15,82.9,73.8,63.1,36.4,32.6,27.4,34,22,16,29.88,29.74,10,3,14,0.00
2013-5-16,84.6,73.1,60.6,56.8,45.1,30.8,53,38,23,29.83,29.71,10,3,15,0.00
2013-5-17,85.8,74.6,63.9,58.1,51.9,47.2,77,48,29,29.85,29.74,9,3,13,0.00
2013-5-18,84.2,74.3,62.6,60.5,55.8,49.3,85,54,33,29.85,29.65,15,5,18,0.00
2013-5-19,75.6,65.8,58.8,69.5,59.6,47.8,98,82,54,29.74,29.47,11,3,15,1.04
2013-5-20,75.9,65.6,56.8,57.1,49.0,40.0,94,60,31,29.65,29.50,14,6,20,0.00
2013-5-21,63.0,58.4,54.1,54.6,44.9,36.6,84,62,42,29.74,29.56,12,6,16,0.00
2013-5-22,60.3,54.9,51.3,53.6,46.0,41.7,94,73,53,29.94,29.68,9,4,15,0.00
2013-5-23,72.9,60.5,51.4,47.9,41.8,31.8,85,55,25,30.21,29.94,9,3,13,0.00
2013-5-24,73.8,63.0,50.4,45.4,39.1,33.4,64,43,29,30.24,30.00,12,5,17,0.00
2013-5-25,78.4,67.8,57.9,65.0,55.6,36.7,98,68,36,30.09,29.91,11,5,16,0.40
2013-5-26,82.2,70.1,64.0,66.0,62.0,58.8,93,77,49,29.94,29.80,7,4,12,0.00
2013-5-27,77.9,67.7,60.1,63.3,58.5,51.9,98,75,45,29.88,29.56,12,4,24,1.62
2013-5-28,81.1,71.1,61.2,65.7,57.5,46.1,98,67,31,29.71,29.59,7,2,10,0.05
2013-5-29,74.1,68.4,62.6,68.8,60.9,53.9,93,77,57,29.71,29.50,12,5,16,0.76
2013-5-30,75.2,65.6,59.5,61.9,55.8,46.9,98,73,45,29.59,29.47,14,5,21,0.13
2013-5-31,78.6,68.2,58.6,51.6,41.8,33.7,76,41,23,29.71,29.56,14,6,21,0.00
2013-6-1,61.7,58.0,54.1,52.8,44.2,35.8,84,61,39,30.00,29.62,11,6,18,0.00
2013-6-2,69.1,58.9,50.4,45.0,37.8,33.0,76,48,29,30.09,29.97,8,2,11,0.00
2013-6-3,74.1,63.2,51.1,45.3,40.6,34.5,73,46,26,30.03,29.80,10,5,17,0.00
2013-6-4,72.7,65.8,58.8,59.7,54.3,45.0,89,67,49,29.94,29.83,9,3,15,0.04
2013-6-5,75.4,64.9,57.2,61.3,44.4,36.1,92,51,27,30.03,29.91,8,3,12,0.00
2013-6-6,73.6,63.8,55.2,52.4,43.2,37.8,74,50,31,29.97,29.91,7,2,11,0.00
2013-6-7,75.0,63.6,51.8,50.4,42.5,38.0,87,49,29,30.03,29.85,6,2,10,0.00
2013-6-8,68.0,62.1,57.7,63.3,52.9,40.7,98,73,47,29.85,29.65,12,4,17,1.06
2013-6-9,68.4,63.4,59.9,62.1,54.3,49.2,97,73,51,29.83,29.68,10,5,15,0.13
2013-6-10,78.3,67.2,56.7,58.8,55.3,50.8,96,69,39,29.88,29.74,8,2,13,0.00
2013-6-11,88.2,76.4,67.6,64.3,58.1,50.1,76,56,29,29.80,29.62,7,3,10,0.00
2013-6-12,87.6,77.0,62.6,63.9,54.2,43.7,69,47,31,29.97,29.62,11,4,18,0.00
2013-6-13,79.9,67.5,57.4,53.4,48.3,40.6,79,52,30,30.09,29.94,6,2,8,0.00
2013-6-14,89.6,72.8,62.6,65.9,57.9,51.3,96,62,39,30.00,29.71,14,5,24,1.34
2013-6-15,81.0,73.2,66.7,67.1,58.9,49.0,90,63,35,29.88,29.74,14,4,18,0.00
2013-6-16,88.2,77.5,66.9,69.9,55.0,42.4,98,52,22,29.94,29.85,5,2,8,0.00
2013-6-17,89.4,77.4,64.9,53.1,46.8,41.4,65,36,21,29.97,29.85,6,2,9,0.00
2013-6-18,83.3,73.0,65.3,58.8,46.5,39.7,72,41,22,30.03,29.91,4,1,7,0.04
2013-6-19,86.9,75.6,64.8,57.6,52.0,43.9,71,45,29,29.97,29.85,10,4,16,0.00
2013-6-20,90.0,79.8,69.1,63.9,60.0,53.8,73,52,37,29.88,29.74,13,6,18,0.00
2013-6-21,93.6,84.4,76.6,65.6,61.4,56.2,65,47,29,29.85,29.71,12,6,20,0.00
2013-6-22,91.0,80.6,70.2,64.0,56.6,46.6,66,45,29,29.97,29.74,14,6,21,0.00
2013-6-23,80.1,73.5,64.8,64.7,60.6,56.5,96,66,47,29.88,29.68,14,4,17,1.30
2013-6-24,82.2,75.4,64.2,67.4,64.4,57.1,96,70,49,29.97,29.65,29,4,36,0.64
2013-6-25,86.4,79.1,71.2,67.6,62.4,52.3,78,58,42,29.74,29.62,11,4,15,0.00
2013-6-26,92.5,81.5,73.6,72.5,57.7,45.9,94,50,21,29.83,29.62,8,3,12,0.04
2013-6-27,86.4,74.9,69.8,69.3,58.5,51.9,85,58,37,29.94,29.80,7,2,8,0.20
2013-6-28,85.8,76.6,68.5,62.2,50.0,40.6,76,43,21,29.94,29.85,11,4,18,0.00
2013-6-29,81.3,72.4,64.6,51.3,46.0,41.9,55,40,27,29.91,29.83,11,4,18,0.00
2013-6-30,79.3,69.4,58.8,52.4,45.1,37.1,72,45,25,30.06,29.88,6,2,10,0.00
2013-7-1,84.6,71.8,55.9,47.6,41.7,36.7,73,37,20,30.12,30.03,6,1,9,0.00
2013-7-2,82.9,67.7,60.3,55.0,47.4,41.5,73,50,24,30.12,29.97,9,1,13,0.00
2013-7-3,85.1,71.5,59.9,62.5,49.7,39.5,97,52,23,30.03,29.88,7,2,10,0.00
2013-7-4,86.0,74.2,61.5,51.7,46.8,40.3,63,40,21,29.94,29.85,9,4,15,0.00
2013-7-5,86.4,76.5,66.7,56.0,51.2,44.6,59,42,29,29.88,29.77,10,5,16,0.00
2013-7-6,88.2,77.9,69.8,58.9,55.1,51.6,58,46,31,29.83,29.74,11,5,17,0.00
2013-7-7,92.5,82.1,72.3,61.3,55.7,52.0,57,42,28,29.85,29.74,11,4,19,0.00
2013-7-8,90.1,81.5,76.3,68.4,62.0,55.2,65,52,33,29.88,29.83,8,3,13,0.00
2013-7-9,96.4,84.7,75.6,66.3,62.5,55.9,67,49,27,29.88,29.77,7,3,10,0.00
2013-7-10,86.2,77.8,70.2,63.8,55.5,48.2,75,49,30,30.00,29.88,7,2,10,0.00
2013-7-11,85.3,75.6,65.5,56.5,51.3,46.8,70,45,30,30.03,29.88,10,4,13,0.00
2013-7-12,88.7,78.2,68.0,60.2,55.0,49.7,59,45,37,29.97,29.85,10,6,15,0.00
2013-7-13,88.9,79.5,72.3,64.5,57.3,50.8,58,47,38,29.91,29.85,10,6,17,0.00
2013-7-14,86.0,78.1,70.0,57.9,51.6,46.6,58,41,28,30.09,29.91,10,4,17,0.00
2013-7-15,88.0,77.8,65.5,60.0,55.9,50.9,71,48,31,30.12,30.03,7,2,11,0.00
2013-7-16,90.0,80.2,69.4,63.4,56.4,48.4,75,47,28,30.21,30.09,8,2,11,0.00
2013-7-17,92.5,82.2,72.5,64.6,59.2,52.9,75,48,28,30.21,30.09,8,3,12,0.00
2013-7-18,93.2,83.4,73.0,64.3,57.7,51.8,69,44,26,30.12,29.85,14,5,18,0.00
2013-7-19,95.0,83.4,75.7,60.6,53.3,44.5,54,37,19,29.88,29.80,10,4,13,0.00
2013-7-20,88.7,78.4,67.5,56.3,49.9,41.2,63,38,21,29.94,29.80,8,2,11,0.00
2013-7-21,90.3,78.6,70.9,65.2,59.4,51.9,76,54,31,29.88,29.71,8,3,20,0.04
2013-7-22,93.6,81.1,69.8,67.9,62.2,51.0,86,56,31,29.80,29.68,7,3,12,0.00
2013-7-23,84.2,74.2,65.5,63.1,53.5,48.0,86,51,31,29.94,29.74,7,2,12,0.04
2013-7-24,85.6,73.4,60.8,56.0,50.4,47.3,79,47,29,30.00,29.91,6,2,10,0.00
2013-7-25,80.6,73.5,69.1,63.5,55.6,48.8,78,55,35,29.97,29.91,11,4,17,0.00
2013-7-26,78.1,69.4,61.0,65.6,51.9,39.1,93,59,27,30.06,29.91,8,3,13,0.00
2013-7-27,75.0,65.0,54.7,48.5,40.1,33.9,72,44,24,30.09,29.94,7,2,11,0.00
2013-7-28,78.4,65.7,50.7,48.7,39.3,33.9,87,42,22,30.00,29.94,6,1,8,0.00
2013-7-29,66.4,63.4,59.4,61.8,51.3,35.2,90,68,34,30.00,29.94,8,3,12,0.13
2013-7-30,75.7,69.4,64.8,66.9,60.1,54.9,97,75,49,30.06,29.97,5,1,7,0.00
2013-7-31,86.9,74.3,63.1,66.6,56.1,49.2,97,58,30,30.09,29.97,5,1,8,0.00
2013-8-1,85.6,73.4,63.5,65.7,57.0,49.2,92,59,30,30.03,29.80,16,3,21,0.46
2013-8-2,84.6,74.7,66.6,66.5,57.0,50.5,86,56,35,29.94,29.77,8,3,13,0.00
2013-8-3,79.2,71.3,63.5,53.1,47.6,43.2,67,44,31,30.12,29.94,6,2,10,0.00
2013-8-4,77.9,70.2,61.3,61.0,51.0,45.8,70,51,37,30.12,29.94,9,3,13,0.00
2013-8-5,86.9,75.5,68.4,70.3,64.8,58.9,95,71,42,29.97,29.77,8,3,11,0.30
2013-8-6,88.7,77.7,67.1,69.6,63.7,56.1,91,65,38,29.88,29.74,10,2,14,0.33
2013-8-7,86.2,76.5,67.6,67.6,54.7,46.9,82,50,29,29.97,29.74,6,2,9,0.00
2013-8-8,79.3,71.3,65.5,58.6,54.2,49.9,69,56,39,29.97,29.88,5,2,7,0.00
2013-8-9,82.4,72.6,63.1,68.0,54.7,45.3,98,58,30,30.09,29.94,5,1,8,0.00
2013-8-10,82.8,73.3,59.0,59.6,50.2,46.6,82,48,29,30.15,30.03,8,3,13,0.00
2013-8-11,86.7,79.4,66.6,63.9,54.3,47.8,71,44,30,30.06,29.91,10,5,13,0.00
2013-8-12,86.9,76.6,68.4,65.8,55.1,43.0,79,51,23,30.00,29.91,5,2,9,0.00
2013-8-13,81.5,71.5,63.0,53.3,47.0,41.7,66,44,27,30.09,29.97,6,1,8,0.00
2013-8-14,75.2,67.4,59.2,54.3,47.2,43.3,69,50,34,30.12,29.97,7,3,10,0.04
2013-8-15,66.2,62.9,59.9,59.0,55.1,51.4,93,77,63,30.06,29.97,9,4,14,1.16
2013-8-16,73.9,66.6,61.9,53.8,49.4,44.5,73,55,39,30.15,30.03,8,3,13,0.00
2013-8-17,79.0,69.2,60.3,53.7,46.9,42.0,73,47,30,30.15,30.03,8,2,12,0.00
2013-8-18,80.1,69.5,56.8,54.6,47.7,43.8,80,48,30,30.09,29.97,9,3,12,0.00
2013-8-19,86.4,75.1,65.1,59.9,55.4,52.1,73,52,33,30.00,29.85,11,4,15,0.00
2013-8-20,88.9,78.9,70.0,60.7,58.1,54.3,71,51,32,29.91,29.83,12,5,19,0.00
2013-8-21,92.3,80.7,71.6,61.2,57.7,53.2,66,47,30,29.94,29.85,10,5,15,0.00
2013-8-22,84.2,76.8,70.2,61.4,57.9,53.5,71,53,38,30.00,29.88,6,3,10,0.00
2013-8-23,89.6,78.4,70.0,65.5,59.3,51.4,78,55,29,30.03,29.88,9,3,15,0.00
2013-8-24,91.8,82.0,74.1,63.1,59.4,55.4,65,48,31,30.00,29.91,11,5,18,0.00
2013-8-25,95.4,83.4,72.1,64.8,60.0,54.3,76,48,26,30.06,29.94,12,5,18,0.00
2013-8-26,95.4,84.5,74.5,63.0,58.1,53.4,67,43,27,30.00,29.85,11,6,15,0.00
2013-8-27,96.6,84.7,76.1,58.5,54.9,50.4,51,37,23,29.91,29.80,12,6,16,0.00
2013-8-28,95.5,82.4,72.0,58.0,52.1,44.3,53,37,19,29.94,29.85,8,3,13,0.00
2013-8-29,96.6,83.3,71.2,65.4,59.0,53.5,75,47,25,29.94,29.83,8,3,13,0.00
2013-8-30,97.9,83.8,72.0,66.1,60.0,52.5,68,47,27,29.85,29.77,6,2,9,0.00
2013-8-31,94.6,81.1,72.1,69.7,60.6,45.4,87,55,19,29.83,29.71,8,2,12,0.00
2013-9-1,84.2,75.9,67.5,65.1,52.1,40.3,81,48,23,29.94,29.71,9,3,15,0.20
2013-9-2,82.6,70.0,59.2,55.6,45.5,33.0,83,46,21,30.03,29.91,6,1,8,0.00
2013-9-3,86.7,70.9,55.6,55.5,47.3,42.0,80,47,24,30.03,29.91,6,2,9,0.00
2013-9-4,86.7,74.9,67.8,53.4,49.9,46.2,56,42,28,30.06,29.94,6,3,9,0.00
2013-9-5,86.4,75.8,68.4,59.9,53.0,47.8,74,47,28,30.12,30.00,7,3,10,0.04
2013-9-6,93.0,79.4,68.2,57.4,53.0,48.3,59,42,27,30.00,29.83,10,4,14,0.00
2013-9-7,88.5,78.9,70.9,64.3,57.8,51.1,67,50,30,29.88,29.80,8,3,10,0.00
2013-9-8,93.0,80.8,70.3,69.3,61.2,55.1,85,55,29,29.88,29.74,7,2,10,0.00
2013-9-9,97.9,85.0,75.4,63.2,47.7,40.1,61,30,16,29.77,29.68,13,6,19,0.00
2013-9-10,95.9,78.4,69.4,67.7,52.5,43.6,89,44,19,30.00,29.77,12,4,22,1.16
2013-9-11,84.4,74.7,68.7,68.5,60.1,48.7,91,64,32,30.06,29.94,7,1,11,0.34
2013-9-12,81.5,72.2,61.5,63.2,45.6,32.3,80,44,20,30.15,30.03,6,2,10,0.00
2013-9-13,77.0,65.1,54.0,46.8,38.4,34.5,67,39,23,30.18,29.97,6,1,8,0.00
2013-9-14,76.5,65.9,55.8,43.6,39.8,36.7,57,40,25,30.03,29.80,11,4,14,0.00
2013-9-15,69.1,65.5,62.6,65.6,49.6,41.8,96,59,39,30.18,29.77,8,3,13,0.70
2013-9-16,68.2,61.2,55.8,49.1,43.6,39.5,74,53,39,30.24,30.09,8,3,12,0.00
2013-9-17,72.1,63.7,57.4,66.1,58.4,48.7,98,84,62,30.12,29.83,8,4,14,0.25
2013-9-18,89.8,77.5,66.7,63.5,56.6,50.3,87,53,28,29.85,29.62,13,6,23,0.00
2013-9-19,79.5,71.1,58.8,61.6,50.0,35.8,84,49,33,29.94,29.62,11,4,18,0.30
2013-9-20,72.0,60.2,50.5,44.3,36.1,28.6,68,44,22,30.00,29.88,10,3,17,0.00
2013-9-21,77.4,61.5,45.9,45.5,36.8,33.1,75,44,22,30.00,29.80,7,2,10,0.00
2013-9-22,81.0,68.0,56.7,46.3,39.7,32.6,67,39,20,29.85,29.74,12,5,19,0.00
2013-9-23,76.5,66.2,55.6,43.5,38.7,34.2,62,38,23,29.80,29.65,12,6,18,0.00
2013-9-24,71.8,65.8,58.8,49.8,44.3,37.7,71,46,36,29.85,29.62,9,2,14,0.00
2013-9-25,79.5,66.3,52.9,56.7,47.1,42.0,85,54,28,29.85,29.68,9,3,14,0.00
2013-9-26,86.7,73.1,62.1,53.4,46.7,40.0,72,43,20,29.77,29.65,14,7,21,0.00
2013-9-27,87.8,76.8,69.6,48.8,44.8,38.0,47,34,20,29.77,29.68,15,7,22,0.00
2013-9-28,73.4,63.1,51.8,63.4,39.9,27.5,93,46,23,30.00,29.62,11,4,15,0.50
2013-9-29,76.8,62.3,48.9,35.1,31.9,28.0,50,34,20,30.00,29.80,11,4,18,0.00
2013-9-30,81.1,65.9,53.6,42.7,37.0,32.5,64,37,20,29.83,29.62,11,5,17,0.00
2013-10-1,81.0,68.2,56.7,47.4,38.1,29.5,67,36,20,29.91,29.71,6,2,9,0.00
2013-10-2,85.3,70.6,58.5,57.5,45.6,32.3,71,43,23,29.91,29.74,12,3,15,0.00
2013-10-3,79.0,68.7,60.4,61.0,52.0,46.4,98,59,35,29.80,29.65,11,3,18,1.54
2013-10-4,81.9,66.8,50.7,63.3,52.3,25.8,86,63,30,29.83,29.56,16,6,21,0.76
2013-10-5,53.8,46.6,41.2,32.1,23.5,20.4,70,41,30,29.88,29.77,16,9,22,0.00
2013-10-6,50.7,46.2,41.0,42.6,35.5,25.1,83,67,40,29.97,29.74,11,4,17,0.04
2013-10-7,74.5,57.1,42.1,33.2,29.2,25.6,69,38,18,30.06,29.91,10,4,14,0.00
2013-10-8,77.2,63.0,49.8,34.2,31.0,27.6,49,31,20,29.94,29.83,14,6,23,0.00
2013-10-9,77.9,64.7,53.4,39.9,36.2,32.7,53,36,22,29.97,29.85,10,5,18,0.00
2013-10-10,79.5,66.7,55.2,43.7,39.3,35.5,57,38,23,29.94,29.74,12,5,19,0.00
2013-10-11,78.3,65.8,53.2,49.8,38.9,24.5,62,40,15,29.83,29.56,15,7,24,0.00
2013-10-12,68.0,55.2,43.9,32.4,25.3,16.6,56,34,17,30.18,29.80,10,2,13,0.00
2013-10-13,68.7,56.1,38.5,30.6,23.7,16.6,61,29,20,30.33,30.18,7,2,10,0.00
2013-10-14,59.9,53.4,46.6,58.9,38.0,21.1,97,59,29,30.21,29.68,15,6,21,0.94
2013-10-15,55.2,47.9,44.8,44.1,30.1,24.9,67,50,41,30.03,29.74,13,7,19,0.00
2013-10-16,60.6,48.8,43.2,31.6,25.8,16.6,61,43,22,30.06,29.91,8,3,12,0.00
2013-10-17,60.6,47.0,36.9,30.9,25.5,16.8,64,44,28,30.00,29.83,11,3,16,0.00
2013-10-18,51.8,42.1,34.3,29.1,22.2,15.5,72,47,27,30.09,29.94,8,3,13,0.00
2013-10-19,63.3,46.9,33.4,26.1,22.9,17.7,65,41,24,29.97,29.74,12,4,18,0.00
2013-10-20,65.3,51.8,41.0,31.7,26.7,22.6,51,39,23,29.97,29.68,8,3,15,0.00
2013-10-21,54.7,42.4,31.1,28.6,24.8,21.0,83,52,29,30.06,29.88,8,2,10,0.00
2013-10-22,48.9,43.3,38.5,35.2,27.1,20.6,72,53,40,30.09,29.80,8,3,14,0.00
2013-10-23,48.6,39.6,31.1,31.6,27.1,20.8,83,62,39,30.15,30.00,6,2,8,0.00
2013-10-24,52.2,40.3,31.6,25.2,18.4,10.0,67,44,23,30.36,30.15,6,2,12,0.00
2013-10-25,59.4,44.3,29.3,23.5,17.2,10.6,49,35,25,30.36,30.00,14,4,20,0.00
2013-10-26,52.7,44.8,32.5,25.8,19.9,12.0,51,38,26,30.18,29.97,10,3,14,0.00
2013-10-27,71.1,49.1,32.0,30.0,21.1,15.6,54,36,19,30.09,29.74,9,3,14,0.00
2013-10-28,54.9,48.0,40.5,34.6,24.2,19.7,74,40,33,30.12,29.88,7,3,13,0.00
2013-10-29,53.1,47.7,42.3,51.4,37.3,24.8,94,71,34,30.12,29.85,6,3,12,0.05
2013-10-30,56.7,48.6,42.1,56.1,45.7,35.4,98,90,76,29.94,29.71,10,2,17,0.25
2013-10-31,58.6,44.8,36.9,37.9,30.8,21.6,97,62,29,29.74,29.47,8,3,13,0.00
2013-11-1,60.3,46.9,38.5,34.4,28.2,22.3,68,50,25,29.94,29.56,12,4,18,0.10
2013-11-2,59.9,46.0,35.4,29.2,21.2,8.0,66,39,24,30.12,29.94,7,2,13,0.00
2013-11-3,56.7,49.6,41.5,25.5,21.9,19.2,51,34,26,30.09,29.68,15,6,26,0.00
2013-11-4,58.6,49.4,36.3,33.9,26.0,18.9,62,41,27,30.09,29.74,8,3,13,0.00
2013-11-5,45.1,40.3,34.3,39.6,31.5,22.4,93,73,45,30.09,29.77,9,3,13,1.19
2013-11-6,42.1,36.0,32.2,30.9,24.6,20.8,88,64,44,30.21,29.97,8,3,14,0.04
2013-11-7,51.1,38.4,28.8,25.0,17.1,8.6,79,46,21,30.36,30.21,10,3,14,0.00
2013-11-8,62.2,48.3,35.4,26.3,20.0,10.4,48,33,24,30.21,29.68,14,6,28,0.00
2013-11-9,61.7,49.0,39.7,24.9,21.6,17.9,50,35,24,30.30,29.85,8,3,13,0.04
2013-11-10,54.0,43.5,30.2,25.6,18.2,12.7,53,37,26,30.33,30.09,8,3,11,0.00
2013-11-11,46.9,32.6,17.6,37.5,14.5,-1.0,75,48,33,30.68,30.03,9,4,18,0.00
2013-11-12,34.0,22.5,10.4,4.0,-0.7,-5.6,56,37,23,30.83,30.48,7,3,9,0.00
2013-11-13,50.2,34.1,23.2,17.0,7.8,-0.8,42,33,26,30.48,29.94,11,6,19,0.00
2013-11-14,54.9,42.7,34.3,22.9,17.5,12.6,50,36,28,29.94,29.83,9,2,12,0.00
2013-11-15,56.8,42.9,28.6,33.0,22.8,16.7,67,47,27,29.85,29.59,9,3,14,0.00
2013-11-16,64.2,52.3,40.6,46.4,30.5,16.0,85,48,24,29.59,29.26,14,5,21,0.00
2013-11-17,47.7,45.1,32.7,25.4,24.4,17.0,52,44,37,30.06,29.32,4,0,15,0.09
2013-11-18,59.0,44.5,30.4,25.4,17.1,8.0,56,35,17,30.21,29.44,8,2,15,0.00
2013-11-19,62.2,48.6,34.5,24.4,16.0,11.0,42,28,19,30.12,29.80,17,6,26,0.00
2013-11-20,57.6,47.8,38.1,25.8,21.0,15.6,60,36,26,29.88,29.71,11,6,17,0.00
2013-11-21,38.1,28.4,20.3,29.8,14.6,6.7,76,57,43,30.48,29.88,10,5,17,0.00
2013-11-22,30.9,20.9,12.7,8.2,0.2,-4.1,59,40,30,30.65,30.48,8,3,15,0.04
2013-11-23,25.0,17.5,11.3,4.0,-4.3,-11.1,53,38,27,30.80,30.56,7,2,13,0.00
2013-11-24,32.0,20.6,10.0,4.6,-3.0,-12.2,45,35,31,30.68,30.18,10,5,15,0.00
2013-11-25,46.9,33.0,25.3,19.3,10.9,0.4,51,40,28,30.18,30.03,10,4,13,0.00
2013-11-26,32.0,26.2,16.7,14.2,4.9,-4.4,58,41,25,30.36,30.15,10,4,15,0.00
2013-11-27,33.4,22.7,10.4,7.8,0.7,-5.9,56,39,30,30.39,29.97,10,4,15,0.00
2013-11-28,37.4,27.9,19.0,11.4,6.5,0.7,56,40,30,30.42,30.00,9,3,13,0.00
2013-11-29,46.4,31.3,17.8,16.5,10.3,0.5,55,42,29,30.42,30.09,8,4,13,0.00
2013-11-30,60.1,40.1,25.3,23.1,15.9,9.7,63,39,22,30.09,30.00,4,1,6,0.00
2013-12-1,48.4,36.1,24.8,19.9,15.1,11.2,64,43,28,30.12,29.80,4,1,6,0.00
2013-12-2,65.7,45.2,31.6,26.8,20.0,14.1,64,39,20,29.83,29.50,7,3,9,0.00
2013-12-3,46.8,38.1,34.0,27.4,22.0,15.5,76,53,38,29.65,29.44,6,2,11,0.00
2013-12-4,34.0,21.7,15.3,30.1,10.5,-4.3,88,63,41,30.03,29.62,10,5,20,0.00
2013-12-5,16.0,10.9,7.0,-2.3,-9.3,-14.9,44,39,34,30.36,30.03,11,4,16,0.00
2013-12-6,13.8,5.0,-1.5,-9.4,-17.3,-23.1,34,34,34,30.65,30.36,7,3,12,0.00
2013-12-7,12.0,2.4,-3.6,-11.0,-19.7,-25.0,34,34,34,30.65,30.33,6,2,10,0.00
2013-12-8,17.8,12.8,7.5,9.6,-2.1,-12.6,75,54,34,30.36,29.94,7,3,12,0.00
2013-12-9,12.6,5.1,-4.9,4.6,-2.5,-12.4,70,70,70,30.30,30.00,16,4,23,0.00
2013-12-10,27.9,22.0,12.2,24.0,3.3,-4.7,86,45,34,30.21,30.03,14,5,18,0.00
2013-12-11,27.3,9.7,0.7,19.0,-7.0,-16.2,71,46,44,30.62,30.18,10,4,16,0.00
2013-12-12,33.3,20.2,8.2,10.9,2.1,-9.2,56,45,37,30.39,30.03,8,3,10,0.00
2013-12-13,36.0,24.7,15.3,14.5,10.0,3.1,67,54,39,30.06,29.85,6,2,10,0.00
2013-12-14,21.7,17.6,12.6,9.8,4.1,0.6,64,55,44,30.18,30.03,7,3,12,0.00
2013-12-15,28.4,21.1,13.5,9.8,6.8,2.1,63,54,42,30.15,29.91,5,2,7,0.00
2013-12-16,48.9,28.1,13.3,20.9,12.2,2.0,65,52,31,30.12,29.91,7,2,14,0.00
2013-12-17,43.3,33.3,26.4,20.2,12.4,2.6,70,45,23,30.24,30.06,9,3,13,0.00
2013-12-18,56.7,39.0,28.9,21.5,14.8,8.1,52,38,25,30.06,29.65,8,3,14,0.00
2013-12-19,35.2,29.3,18.3,19.4,14.1,9.6,71,53,40,29.83,29.71,8,3,14,0.00
2013-12-20,18.3,15.1,12.0,10.2,3.9,2.2,71,61,54,29.94,29.83,8,3,14,0.00
2013-12-21,24.8,20.7,17.1,12.1,6.7,3.6,67,55,43,29.88,29.74,7,2,12,0.00
2013-12-22,21.2,14.2,8.1,11.3,-0.0,-11.3,70,53,39,30.33,29.83,8,4,13,0.00
2013-12-23,13.5,5.8,0.3,-6.9,-13.3,-18.4,40,40,40,30.53,30.33,8,3,13,0.00
2013-12-24,19.6,9.4,0.9,4.8,-9.2,-17.9,52,42,40,30.48,30.03,12,6,20,0.00
2013-12-25,72.7,34.1,19.8,51.3,15.2,2.6,100,47,19,30.24,28.94,16,6,18,0.00
2013-12-26,49.5,34.3,25.3,19.3,10.9,6.3,55,39,24,30.18,29.00,10,4,12,0.00
2013-12-27,62.8,40.6,22.8,21.0,12.7,5.6,56,35,16,30.21,29.97,18,6,18,0.00
2013-12-28,59.4,40.3,14.4,19.2,13.7,-3.9,48,35,19,30.09,29.71,26,8,26,0.00
2013-12-29,15.3,8.5,3.6,-3.8,-14.4,-24.6,44,35,24,30.33,30.09,21,6,21,0.00
2013-12-30,33.8,17.2,4.8,12.6,-8.5,-24.3,47,31,24,30.24,30.00,15,6,15,0.00
2013-12-31,39.4,16.5,7.5,19.3,-2.2,-8.5,55,43,31,30.24,28.79,10,4,10,0.00
2014-1-1,9.7,7.2,2.5,-7.9,-10.2,-14.5,44,44,44,30.33,30.06,14,5,14,0.00
2014-1-2,11.7,3.6,-1.3,-6.3,-13.5,-18.0,44,44,44,30.39,30.27,8,2,8,0.00